Dunnville, Canada
Current Conditions -  °F | °C
As of 9:00 PM on Friday 24 Oct 2014 (Local Time) from CYHM Reporting Station
Broken Clouds Broken Clouds  
Wind Chill: 46°   Ceiling: 6300
Heat Index: 48°   Visibility: 15mi
Dew Point: 41°   Wind: 5mph
Humidity: 76%   Direction: 230°SW
Pressure: 29.96"   Gusts: NA
Location:  42.9°N, 79.62°W
Report Text: CYHM 250100Z 23004KT 15SM FEW037 BKN063 09/05 A2996 RMK SC2SC4 SLP151
Loading
Personal Weather Stations






























Interactive Weather Map
Tropical Storm Tracking
New forecast layout! Learn more

10-Day Weather Forecast

Advertisements
Track Severe Weather on mobile